Time;durP1;ratioP1;P1;durP2;ratioP2;P2;SDS_P1;SDS_P2;PMS_P1;PMS_P2;Temp;Humidity;BMP_temperature;BMP_pressure;BME280_temperature;BME280_humidity;BME280_pressure;Samples;Min_cycle;Max_cycle;Signal;HPM_P1;HPM_P2
2023/09/21 00:00:50;;;;;;;7.25;2.42;;;;;;;;;;5010467;28;20358;-67
2023/09/21 00:03:15;;;;;;;8.07;2.08;;;;;;;;;;5010536;28;20018;-67
2023/09/21 00:05:46;;;;;;;5.25;2.30;;;;;;;;;;5010208;28;20033;-67
2023/09/21 00:08:11;;;;;;;4.10;2.10;;;;;;;;;;5005181;28;20088;-69
2023/09/21 00:10:36;;;;;;;6.05;2.10;;;;;;;;;;5010140;28;20440;-67
2023/09/21 00:13:04;;;;;;;4.47;2.42;;;;;;;;;;5009694;28;20104;-63
2023/09/21 00:15:29;;;;;;;11.55;2.63;;;;;;;;;;5000938;28;20017;-67
2023/09/21 00:17:55;;;;;;;4.97;2.50;;;;;;;;;;5009747;28;20002;-66
2023/09/21 00:20:25;;;;;;;6.88;2.55;;;;;;;;;;5006273;28;20010;-65
2023/09/21 00:22:51;;;;;;;5.65;2.22;;;;;;;;;;5008519;28;20420;-68
2023/09/21 00:25:17;;;;;;;7.25;2.42;;;;;;;;;;5007156;28;20018;-68
2023/09/21 00:27:42;;;;;;;5.03;2.10;;;;;;;;;;5008492;28;20044;-64
2023/09/21 00:30:07;;;;;;;5.43;2.50;;;;;;;;;;5007150;28;20387;-67
2023/09/21 00:32:39;;;;;;;6.00;2.35;;;;;;;;;;5010622;28;20020;-67
2023/09/21 00:35:09;;;;;;;7.03;2.47;;;;;;;;;;5008174;28;20079;-67
2023/09/21 00:37:34;;;;;;;8.00;2.15;;;;;;;;;;5017842;28;20040;-68
2023/09/21 00:40:00;;;;;;;11.40;2.60;;;;;;;;;;5011922;28;20033;-67
2023/09/21 00:42:25;;;;;;;5.82;2.30;;;;;;;;;;5011720;28;20018;-66
2023/09/21 00:44:51;;;;;;;6.25;2.55;;;;;;;;;;5010249;28;20029;-68
2023/09/21 00:47:17;;;;;;;4.68;2.20;;;;;;;;;;5012526;28;20550;-67
2023/09/21 00:49:42;;;;;;;10.00;2.55;;;;;;;;;;5009693;28;20097;-67
2023/09/21 00:52:11;;;;;;;7.10;2.53;;;;;;;;;;5012043;28;20045;-68
2023/09/21 00:54:37;;;;;;;5.03;2.08;;;;;;;;;;5010332;28;20025;-68
2023/09/21 00:57:02;;;;;;;4.38;2.10;;;;;;;;;;4991880;28;20137;-67
2023/09/21 00:59:29;;;;;;;6.53;2.53;;;;;;;;;;5007289;28;20026;-68
2023/09/21 01:01:54;;;;;;;4.00;2.05;;;;;;;;;;5011405;28;20092;-69
2023/09/21 01:04:21;;;;;;;4.72;2.35;;;;;;;;;;5008845;28;20303;-66
2023/09/21 01:06:47;;;;;;;7.88;2.58;;;;;;;;;;5005170;28;20020;-68
2023/09/21 01:09:13;;;;;;;5.07;2.45;;;;;;;;;;5010960;28;20009;-66
2023/09/21 01:11:38;;;;;;;5.65;2.15;;;;;;;;;;5002197;28;20014;-67
2023/09/21 01:14:04;;;;;;;6.53;2.47;;;;;;;;;;5010581;28;20449;-67
2023/09/21 01:16:30;;;;;;;4.75;2.08;;;;;;;;;;5005951;28;20014;-68
2023/09/21 01:18:55;;;;;;;6.95;2.20;;;;;;;;;;5007894;28;20072;-65
2023/09/21 01:21:34;;;;;;;6.05;2.28;;;;;;;;;;5005974;28;20018;-68
2023/09/21 01:23:59;;;;;;;4.65;2.25;;;;;;;;;;5008164;28;20042;-67
2023/09/21 01:26:24;;;;;;;10.73;2.63;;;;;;;;;;5009351;28;20044;-64
2023/09/21 01:28:50;;;;;;;6.65;2.38;;;;;;;;;;5008572;28;20033;-68
2023/09/21 01:31:16;;;;;;;4.90;2.63;;;;;;;;;;5009458;28;20038;-66
2023/09/21 01:33:44;;;;;;;5.95;2.10;;;;;;;;;;5010064;28;20053;-67
2023/09/21 01:36:12;;;;;;;4.97;2.42;;;;;;;;;;5010426;28;20107;-67
2023/09/21 01:38:37;;;;;;;5.03;2.13;;;;;;;;;;4999133;28;20064;-65
2023/09/21 01:41:03;;;;;;;4.60;2.13;;;;;;;;;;5008690;28;20010;-68
2023/09/21 01:43:28;;;;;;;4.28;2.00;;;;;;;;;;5006369;28;20010;-67
2023/09/21 01:45:54;;;;;;;5.05;2.10;;;;;;;;;;5008768;28;20414;-66
2023/09/21 01:48:19;;;;;;;6.78;2.40;;;;;;;;;;5009202;28;20616;-68
2023/09/21 01:50:51;;;;;;;6.38;2.42;;;;;;;;;;5013851;28;20033;-65
2023/09/21 01:53:20;;;;;;;5.05;2.22;;;;;;;;;;5010262;28;20059;-68
2023/09/21 01:55:47;;;;;;;7.65;2.13;;;;;;;;;;5013070;28;20014;-66
2023/09/21 01:58:13;;;;;;;6.32;2.30;;;;;;;;;;5016677;28;20025;-68
2023/09/21 02:00:39;;;;;;;5.40;2.30;;;;;;;;;;5014982;28;20129;-68
2023/09/21 02:03:08;;;;;;;4.90;2.20;;;;;;;;;;5007818;28;20014;-69
2023/09/21 02:05:34;;;;;;;5.70;2.72;;;;;;;;;;5012333;28;20014;-68
2023/09/21 02:07:59;;;;;;;7.40;2.13;;;;;;;;;;5001862;28;20044;-67
2023/09/21 02:10:24;;;;;;;4.78;2.15;;;;;;;;;;5001246;28;20049;-68
2023/09/21 02:13:00;;;;;;;6.75;2.60;;;;;;;;;;5012738;28;20018;-67
2023/09/21 02:15:26;;;;;;;6.05;2.85;;;;;;;;;;5008461;28;20462;-68
2023/09/21 02:17:55;;;;;;;5.70;2.33;;;;;;;;;;5004699;28;20014;-68
2023/09/21 02:20:24;;;;;;;5.03;2.10;;;;;;;;;;5010573;28;20030;-66
2023/09/21 02:22:50;;;;;;;8.00;2.00;;;;;;;;;;5006914;28;20350;-67
2023/09/21 02:25:16;;;;;;;3.15;1.67;;;;;;;;;;5010115;28;20068;-67
2023/09/21 02:27:41;;;;;;;5.10;2.22;;;;;;;;;;5012056;28;20014;-66
2023/09/21 02:30:11;;;;;;;4.45;2.22;;;;;;;;;;5010972;28;20105;-67
2023/09/21 02:32:37;;;;;;;8.98;2.55;;;;;;;;;;5011357;28;20484;-68
2023/09/21 02:35:07;;;;;;;6.93;2.60;;;;;;;;;;5009935;28;20646;-68
2023/09/21 02:37:33;;;;;;;8.88;2.40;;;;;;;;;;5018676;28;20021;-68
2023/09/21 02:39:58;;;;;;;6.15;2.40;;;;;;;;;;5010296;28;20009;-64
2023/09/21 02:42:24;;;;;;;6.28;2.17;;;;;;;;;;5011927;28;20492;-67
2023/09/21 02:44:50;;;;;;;4.90;2.33;;;;;;;;;;5009911;28;20065;-67
2023/09/21 02:47:15;;;;;;;6.55;2.35;;;;;;;;;;4993385;28;20380;-68
2023/09/21 02:49:41;;;;;;;6.25;2.50;;;;;;;;;;5009735;28;20351;-65
2023/09/21 02:52:06;;;;;;;5.05;2.30;;;;;;;;;;5011411;28;20495;-67
2023/09/21 02:54:32;;;;;;;5.40;2.23;;;;;;;;;;5009176;28;20437;-67
2023/09/21 02:56:57;;;;;;;5.20;2.20;;;;;;;;;;5010597;28;20251;-67
2023/09/21 02:59:25;;;;;;;7.60;2.97;;;;;;;;;;5009119;28;20019;-68
2023/09/21 03:01:50;;;;;;;6.53;3.33;;;;;;;;;;5010787;28;20018;-65
2023/09/21 03:04:15;;;;;;;4.30;2.13;;;;;;;;;;5009816;28;20024;-69
2023/09/21 03:06:42;;;;;;;4.20;2.13;;;;;;;;;;5005984;28;20026;-68
2023/09/21 03:09:08;;;;;;;4.10;2.13;;;;;;;;;;5001220;28;20049;-65
2023/09/21 03:11:33;;;;;;;6.25;2.17;;;;;;;;;;5007159;28;20049;-69
2023/09/21 03:14:02;;;;;;;4.45;2.47;;;;;;;;;;4994976;28;20048;-67
2023/09/21 03:16:28;;;;;;;4.20;2.30;;;;;;;;;;5009344;28;20010;-67
2023/09/21 03:18:53;;;;;;;5.07;2.20;;;;;;;;;;5011561;28;20085;-69
2023/09/21 03:21:18;;;;;;;5.00;2.30;;;;;;;;;;5013317;28;20018;-66
2023/09/21 03:23:47;;;;;;;5.05;2.40;;;;;;;;;;5005525;28;20011;-67
2023/09/21 03:26:18;;;;;;;6.28;2.55;;;;;;;;;;5011397;28;20016;-66
2023/09/21 03:28:45;;;;;;;5.43;2.63;;;;;;;;;;5012325;28;20564;-68
2023/09/21 03:31:12;;;;;;;4.63;1.90;;;;;;;;;;5005095;28;20022;-68
2023/09/21 03:33:38;;;;;;;6.95;2.42;;;;;;;;;;5005897;28;20019;-68
2023/09/21 03:36:03;;;;;;;5.43;2.17;;;;;;;;;;5011949;28;20068;-67
2023/09/21 03:38:29;;;;;;;5.72;2.20;;;;;;;;;;5009741;28;20010;-66
2023/09/21 03:40:56;;;;;;;6.30;2.53;;;;;;;;;;5011084;28;20014;-68
2023/09/21 03:43:23;;;;;;;4.55;2.00;;;;;;;;;;5001930;28;20015;-66
2023/09/21 03:45:49;;;;;;;8.80;2.08;;;;;;;;;;5009978;28;20016;-68
2023/09/21 03:48:15;;;;;;;7.80;2.40;;;;;;;;;;5006547;28;20097;-69
2023/09/21 03:50:41;;;;;;;6.82;2.22;;;;;;;;;;5012098;28;20026;-69
2023/09/21 03:53:08;;;;;;;7.60;2.22;;;;;;;;;;5010050;28;20101;-68
2023/09/21 03:55:34;;;;;;;4.72;1.88;;;;;;;;;;5010007;28;20006;-68
2023/09/21 03:58:00;;;;;;;5.22;2.40;;;;;;;;;;5002065;28;20017;-66
2023/09/21 04:02:52;;;;;;;4.90;2.35;;;;;;;;;;5010233;28;20018;-67
2023/09/21 04:05:18;;;;;;;4.63;2.03;;;;;;;;;;5010046;28;20014;-68
2023/09/21 04:07:47;;;;;;;7.10;2.38;;;;;;;;;;5005181;28;20022;-68
2023/09/21 04:10:13;;;;;;;5.00;2.30;;;;;;;;;;5009822;28;20101;-69
2023/09/21 04:12:39;;;;;;;5.70;2.38;;;;;;;;;;5008562;28;20433;-68
2023/09/21 04:15:05;;;;;;;5.38;2.60;;;;;;;;;;5009853;28;20014;-66
2023/09/21 04:17:30;;;;;;;8.10;2.30;;;;;;;;;;5002614;28;20014;-68
2023/09/21 04:19:56;;;;;;;4.40;2.25;;;;;;;;;;5012143;28;20480;-68
2023/09/21 04:22:21;;;;;;;10.07;2.60;;;;;;;;;;5012407;28;20013;-66
2023/09/21 04:24:46;;;;;;;5.88;2.15;;;;;;;;;;5010892;28;20054;-68
2023/09/21 04:27:11;;;;;;;6.07;2.28;;;;;;;;;;5007112;28;20018;-68
2023/09/21 04:29:36;;;;;;;4.90;2.10;;;;;;;;;;5010743;28;20532;-67
2023/09/21 04:32:02;;;;;;;4.10;2.00;;;;;;;;;;5010734;28;20093;-68
2023/09/21 04:34:27;;;;;;;9.77;2.70;;;;;;;;;;5009868;28;20025;-67
2023/09/21 04:36:52;;;;;;;4.75;2.03;;;;;;;;;;5012276;28;20013;-68
2023/09/21 04:39:20;;;;;;;10.52;2.72;;;;;;;;;;5014950;28;20453;-66
2023/09/21 04:41:46;;;;;;;8.13;2.67;;;;;;;;;;5005467;28;20485;-68
2023/09/21 04:44:11;;;;;;;4.60;1.98;;;;;;;;;;5002814;28;20245;-66
2023/09/21 04:46:36;;;;;;;4.35;2.30;;;;;;;;;;5004706;28;20014;-68
2023/09/21 04:49:02;;;;;;;4.30;2.22;;;;;;;;;;5010375;28;20072;-68
2023/09/21 04:51:30;;;;;;;6.30;2.22;;;;;;;;;;5004283;28;20036;-67
2023/09/21 04:53:56;;;;;;;6.93;2.35;;;;;;;;;;5009729;28;20468;-70
2023/09/21 04:56:21;;;;;;;5.32;2.65;;;;;;;;;;5008150;28;20133;-66
2023/09/21 04:58:47;;;;;;;6.07;2.45;;;;;;;;;;5008043;28;20493;-67
2023/09/21 05:01:12;;;;;;;7.80;2.63;;;;;;;;;;5010322;28;20018;-68
2023/09/21 05:03:38;;;;;;;7.13;2.83;;;;;;;;;;4997816;28;20079;-70
2023/09/21 05:06:04;;;;;;;17.63;5.47;;;;;;;;;;5004416;28;20105;-73
2023/09/21 05:08:29;;;;;;;7.38;2.60;;;;;;;;;;5010407;28;20362;-70
2023/09/21 05:10:54;;;;;;;7.32;2.83;;;;;;;;;;5013294;28;20026;-69
2023/09/21 05:13:21;;;;;;;6.22;2.30;;;;;;;;;;5013615;28;20021;-69
2023/09/21 05:15:48;;;;;;;9.65;2.53;;;;;;;;;;5004573;28;20101;-73
2023/09/21 05:18:15;;;;;;;7.15;2.22;;;;;;;;;;5012035;28;20021;-72
2023/09/21 05:20:44;;;;;;;8.27;2.60;;;;;;;;;;5007473;28;20086;-70
2023/09/21 05:23:09;;;;;;;5.47;2.53;;;;;;;;;;5007419;28;20540;-70
2023/09/21 05:25:34;;;;;;;25.00;6.18;;;;;;;;;;5013036;28;20496;-68
2023/09/21 05:27:59;;;;;;;41.78;10.23;;;;;;;;;;5011079;28;20044;-68
2023/09/21 05:30:28;;;;;;;9.98;3.28;;;;;;;;;;5009464;28;20492;-68
2023/09/21 05:32:56;;;;;;;6.32;2.00;;;;;;;;;;5007478;28;20022;-69
2023/09/21 05:35:23;;;;;;;7.65;3.30;;;;;;;;;;5010289;28;20021;-67
2023/09/21 05:37:49;;;;;;;16.40;3.00;;;;;;;;;;5010588;28;20018;-68
2023/09/21 05:40:14;;;;;;;6.68;2.63;;;;;;;;;;5012474;28;20092;-71
2023/09/21 05:42:41;;;;;;;4.95;2.47;;;;;;;;;;5011848;28;20026;-68
2023/09/21 05:45:07;;;;;;;8.35;2.20;;;;;;;;;;5006737;28;20014;-68
2023/09/21 05:47:32;;;;;;;32.53;6.35;;;;;;;;;;5009971;28;20025;-71
2023/09/21 05:49:57;;;;;;;20.40;6.22;;;;;;;;;;5012418;28;20018;-69
2023/09/21 05:52:24;;;;;;;13.43;3.50;;;;;;;;;;5011537;28;20018;-69
2023/09/21 05:54:49;;;;;;;9.15;3.30;;;;;;;;;;5012253;28;20010;-68
2023/09/21 05:57:16;;;;;;;15.27;4.82;;;;;;;;;;5011808;28;20013;-69
2023/09/21 05:59:41;;;;;;;18.02;4.82;;;;;;;;;;5006639;28;20367;-70
2023/09/21 06:02:13;;;;;;;20.25;4.05;;;;;;;;;;5011341;28;20511;-69
2023/09/21 06:04:39;;;;;;;10.45;2.28;;;;;;;;;;5005288;28;20073;-68
2023/09/21 06:07:04;;;;;;;15.68;4.07;;;;;;;;;;5007467;28;20476;-69
2023/09/21 06:09:29;;;;;;;18.65;3.60;;;;;;;;;;5012453;28;20101;-67
2023/09/21 06:11:54;;;;;;;5.50;2.45;;;;;;;;;;5017216;28;20447;-68
2023/09/21 06:14:21;;;;;;;5.22;2.60;;;;;;;;;;5016305;28;20055;-69
2023/09/21 06:16:47;;;;;;;7.50;2.95;;;;;;;;;;5015610;28;20473;-68
2023/09/21 06:19:12;;;;;;;8.88;2.70;;;;;;;;;;5009881;28;20018;-70
2023/09/21 06:21:39;;;;;;;12.45;2.80;;;;;;;;;;5010875;28;20061;-71
2023/09/21 06:24:05;;;;;;;8.20;2.70;;;;;;;;;;5009862;28;20085;-70
2023/09/21 06:26:30;;;;;;;16.63;3.90;;;;;;;;;;5010772;28;20014;-69
2023/09/21 06:28:55;;;;;;;8.90;3.30;;;;;;;;;;5004760;28;20020;-69
2023/09/21 06:31:21;;;;;;;7.22;3.03;;;;;;;;;;5010326;28;20033;-66
2023/09/21 06:33:46;;;;;;;7.82;2.22;;;;;;;;;;5004169;28;20014;-69
2023/09/21 06:36:20;;;;;;;4.55;2.45;;;;;;;;;;5011443;28;20022;-70
2023/09/21 06:38:46;;;;;;;8.27;2.10;;;;;;;;;;5012707;28;20018;-69
2023/09/21 06:41:12;;;;;;;5.45;2.40;;;;;;;;;;5012335;28;20117;-67
2023/09/21 06:43:42;;;;;;;9.70;3.25;;;;;;;;;;5008401;28;20693;-71
2023/09/21 06:46:08;;;;;;;12.95;3.17;;;;;;;;;;5004632;28;20021;-71
2023/09/21 06:48:33;;;;;;;6.18;2.65;;;;;;;;;;5007660;28;20018;-71
2023/09/21 06:50:58;;;;;;;9.43;2.72;;;;;;;;;;4994244;28;20105;-71
2023/09/21 06:53:24;;;;;;;7.20;2.83;;;;;;;;;;5003482;28;20378;-66
2023/09/21 06:55:49;;;;;;;6.50;2.75;;;;;;;;;;5009201;28;20024;-70
2023/09/21 06:58:14;;;;;;;12.43;2.40;;;;;;;;;;5006834;28;20084;-69
2023/09/21 07:00:40;;;;;;;7.28;2.45;;;;;;;;;;5011049;28;20026;-69
2023/09/21 07:03:05;;;;;;;7.25;2.50;;;;;;;;;;5006053;28;20017;-71
2023/09/21 07:05:30;;;;;;;12.80;3.00;;;;;;;;;;5007841;28;20010;-66
2023/09/21 07:07:55;;;;;;;7.72;2.83;;;;;;;;;;5005460;28;20475;-69
2023/09/21 07:10:21;;;;;;;6.25;2.67;;;;;;;;;;5011749;28;20018;-68
2023/09/21 07:12:46;;;;;;;4.80;2.20;;;;;;;;;;4987968;28;20022;-70
2023/09/21 07:15:12;;;;;;;5.82;2.45;;;;;;;;;;5003145;28;20010;-69
2023/09/21 07:17:37;;;;;;;7.53;2.45;;;;;;;;;;5006004;28;20049;-71
2023/09/21 07:20:04;;;;;;;6.82;2.85;;;;;;;;;;5011740;28;20021;-69
2023/09/21 07:22:30;;;;;;;15.00;2.95;;;;;;;;;;4999168;28;20010;-70
2023/09/21 07:24:59;;;;;;;16.45;3.08;;;;;;;;;;5009914;28;20056;-69
2023/09/21 07:27:24;;;;;;;5.85;2.50;;;;;;;;;;5002080;28;20048;-69
2023/09/21 07:29:50;;;;;;;5.15;2.60;;;;;;;;;;5004947;28;20432;-70
2023/09/21 07:32:16;;;;;;;8.07;2.58;;;;;;;;;;5010778;28;20472;-69
2023/09/21 07:34:41;;;;;;;9.50;3.30;;;;;;;;;;5010254;28;20524;-66
2023/09/21 07:37:10;;;;;;;11.70;2.78;;;;;;;;;;5011900;28;20063;-70
2023/09/21 07:39:35;;;;;;;7.47;2.42;;;;;;;;;;4987126;28;20033;-71
2023/09/21 07:42:04;;;;;;;8.13;1.95;;;;;;;;;;4993967;28;20434;-69
2023/09/21 07:44:30;;;;;;;6.32;2.35;;;;;;;;;;4993183;28;20041;-66
2023/09/21 07:46:56;;;;;;;8.65;2.60;;;;;;;;;;5006281;28;20454;-70
2023/09/21 07:49:25;;;;;;;5.78;2.40;;;;;;;;;;5010780;28;20621;-68
2023/09/21 07:51:50;;;;;;;10.43;2.50;;;;;;;;;;5008022;28;20113;-71
2023/09/21 07:54:16;;;;;;;7.28;2.38;;;;;;;;;;5002609;28;20053;-71
2023/09/21 07:56:42;;;;;;;7.32;2.42;;;;;;;;;;5010059;28;20099;-70
2023/09/21 07:59:10;;;;;;;10.95;2.53;;;;;;;;;;5007277;28;20448;-71
2023/09/21 08:01:36;;;;;;;6.70;2.50;;;;;;;;;;5002331;28;20017;-70
2023/09/21 08:04:01;;;;;;;8.10;2.40;;;;;;;;;;5011062;28;20018;-73
2023/09/21 08:06:27;;;;;;;8.30;2.80;;;;;;;;;;5000830;28;20029;-69
2023/09/21 08:08:52;;;;;;;9.73;2.33;;;;;;;;;;5005269;28;20024;-69
2023/09/21 08:11:17;;;;;;;8.13;2.25;;;;;;;;;;5008519;28;20385;-71
2023/09/21 08:13:42;;;;;;;6.70;2.50;;;;;;;;;;4991863;28;20014;-69
2023/09/21 08:16:08;;;;;;;7.63;2.22;;;;;;;;;;5007689;28;20022;-71
2023/09/21 08:18:36;;;;;;;9.30;2.20;;;;;;;;;;5013639;28;20033;-70
2023/09/21 08:21:01;;;;;;;7.68;2.13;;;;;;;;;;5009612;28;20396;-71
2023/09/21 08:23:27;;;;;;;8.30;2.25;;;;;;;;;;5010007;28;20515;-69
2023/09/21 08:25:52;;;;;;;6.35;2.30;;;;;;;;;;5010266;28;20611;-70
2023/09/21 08:28:17;;;;;;;10.20;2.28;;;;;;;;;;5008503;28;20018;-70
2023/09/21 08:30:42;;;;;;;5.95;2.05;;;;;;;;;;5010884;28;20096;-70
2023/09/21 08:33:08;;;;;;;9.82;2.08;;;;;;;;;;5007696;28;20018;-71
2023/09/21 08:35:33;;;;;;;8.27;1.90;;;;;;;;;;5011104;28;20092;-70
2023/09/21 08:37:59;;;;;;;4.43;2.20;;;;;;;;;;5013823;28;20457;-67
2023/09/21 08:40:25;;;;;;;10.98;2.45;;;;;;;;;;5002327;28;20022;-68
2023/09/21 08:42:55;;;;;;;12.18;2.10;;;;;;;;;;5010329;28;20097;-70
2023/09/21 08:45:22;;;;;;;8.23;2.35;;;;;;;;;;5007325;28;20064;-69
2023/09/21 08:47:48;;;;;;;13.10;2.45;;;;;;;;;;5002181;28;20362;-70
2023/09/21 08:50:16;;;;;;;4.93;2.30;;;;;;;;;;5009945;28;20453;-70
2023/09/21 08:52:42;;;;;;;10.45;2.38;;;;;;;;;;5002489;28;20010;-70
2023/09/21 08:55:10;;;;;;;14.05;1.98;;;;;;;;;;5007154;28;20075;-70
2023/09/21 08:57:36;;;;;;;6.30;2.30;;;;;;;;;;5009369;28;20587;-67
2023/09/21 09:00:08;;;;;;;6.72;2.17;;;;;;;;;;5003250;28;20041;-70
2023/09/21 09:02:37;;;;;;;10.30;1.98;;;;;;;;;;5005849;28;20089;-67
2023/09/21 09:05:04;;;;;;;;;;;;;;;;;;5001955;28;20022;-69
2023/09/21 09:07:31;;;;;;;10.40;2.58;;;;;;;;;;5006427;28;19902;-68
2023/09/21 09:09:57;;;;;;;12.68;2.20;;;;;;;;;;5001053;28;20014;-70
2023/09/21 09:12:23;;;;;;;8.10;2.05;;;;;;;;;;5005034;28;20013;-66
2023/09/21 09:14:49;;;;;;;6.38;2.17;;;;;;;;;;5001085;28;20097;-71
2023/09/21 09:17:14;;;;;;;27.35;2.75;;;;;;;;;;5009458;28;20068;-68
2023/09/21 09:19:40;;;;;;;12.25;2.53;;;;;;;;;;5004361;28;20022;-69
2023/09/21 09:22:05;;;;;;;13.10;3.30;;;;;;;;;;5007438;28;20132;-70
2023/09/21 09:24:31;;;;;;;8.30;2.60;;;;;;;;;;5003186;28;20025;-70
2023/09/21 09:26:57;;;;;;;13.15;2.42;;;;;;;;;;5009877;28;20072;-70
2023/09/21 09:29:23;;;;;;;10.18;2.08;;;;;;;;;;4982841;28;20076;-69
2023/09/21 09:31:48;;;;;;;10.75;2.08;;;;;;;;;;5008215;28;20014;-70
2023/09/21 09:34:17;;;;;;;11.30;2.13;;;;;;;;;;5008976;28;20010;-69
2023/09/21 09:36:45;;;;;;;7.25;1.92;;;;;;;;;;5009970;28;20101;-70
2023/09/21 09:39:14;;;;;;;10.60;2.20;;;;;;;;;;5003934;28;20014;-69
2023/09/21 09:41:40;;;;;;;10.13;1.95;;;;;;;;;;5008995;28;20013;-71
2023/09/21 09:44:06;;;;;;;7.13;3.53;;;;;;;;;;5007602;28;20117;-70
2023/09/21 09:46:33;;;;;;;4.95;1.83;;;;;;;;;;5004758;28;20010;-69
2023/09/21 09:49:01;;;;;;;6.65;1.83;;;;;;;;;;4999636;28;20006;-73
2023/09/21 09:51:37;;;;;;;13.45;2.25;;;;;;;;;;5009336;28;20006;-73
2023/09/21 09:54:02;;;;;;;6.22;1.55;;;;;;;;;;5002279;28;20022;-71
2023/09/21 09:56:29;;;;;;;16.08;2.00;;;;;;;;;;5008739;28;20052;-70
2023/09/21 09:58:57;;;;;;;6.55;1.92;;;;;;;;;;4983269;28;20061;-69
2023/09/21 10:01:22;;;;;;;4.63;1.60;;;;;;;;;;5001548;28;20100;-70
2023/09/21 10:03:50;;;;;;;8.00;1.77;;;;;;;;;;5009193;28;20148;-69
2023/09/21 10:06:16;;;;;;;6.97;1.75;;;;;;;;;;5007101;28;20473;-69
2023/09/21 10:08:42;;;;;;;3.95;1.95;;;;;;;;;;5006952;28;20029;-69
2023/09/21 10:11:07;;;;;;;5.35;1.33;;;;;;;;;;5010619;28;20014;-69
2023/09/21 10:13:47;;;;;;;4.75;1.35;;;;;;;;;;5012485;28;20022;-72
2023/09/21 10:16:13;;;;;;;4.47;1.75;;;;;;;;;;4992248;28;20648;-68
2023/09/21 10:18:40;;;;;;;6.70;1.60;;;;;;;;;;5012304;28;20105;-70
2023/09/21 10:21:16;;;;;;;3.00;1.30;;;;;;;;;;5009383;28;20017;-71
2023/09/21 10:24:02;;;;;;;3.20;1.52;;;;;;;;;;5007580;28;20037;-71
2023/09/21 10:26:28;;;;;;;2.70;1.40;;;;;;;;;;5001038;28;20015;-71
2023/09/21 10:28:54;;;;;;;7.38;1.60;;;;;;;;;;5011584;28;20080;-71
2023/09/21 10:31:23;;;;;;;5.70;1.60;;;;;;;;;;5010968;28;20018;-70
2023/09/21 10:33:51;;;;;;;4.10;1.33;;;;;;;;;;5012187;28;20018;-71
2023/09/21 10:36:43;;;;;;;9.63;1.70;;;;;;;;;;5010567;28;20021;-69
2023/09/21 10:39:11;;;;;;;3.80;1.88;;;;;;;;;;5001667;28;20014;-71
2023/09/21 10:41:40;;;;;;;2.97;1.23;;;;;;;;;;5010922;28;20026;-68
2023/09/21 10:44:06;;;;;;;3.50;1.10;;;;;;;;;;5012259;28;20049;-70
2023/09/21 10:46:35;;;;;;;8.48;1.80;;;;;;;;;;5008746;28;20024;-69
2023/09/21 10:49:03;;;;;;;5.63;1.55;;;;;;;;;;5011838;28;20013;-70
2023/09/21 10:51:29;;;;;;;3.35;1.48;;;;;;;;;;5011631;28;20024;-70
2023/09/21 10:53:56;;;;;;;8.02;1.50;;;;;;;;;;5011635;28;20109;-73
2023/09/21 10:56:22;;;;;;;9.45;1.50;;;;;;;;;;5005048;28;20010;-71
2023/09/21 10:58:48;;;;;;;7.97;2.05;;;;;;;;;;5007221;28;20032;-66
2023/09/21 11:01:13;;;;;;;14.57;1.88;;;;;;;;;;5011838;28;20105;-68
2023/09/21 11:03:38;;;;;;;9.35;1.63;;;;;;;;;;5009738;28;20022;-69
2023/09/21 11:06:05;;;;;;;8.05;2.30;;;;;;;;;;5010739;28;20674;-71
2023/09/21 11:08:30;;;;;;;12.25;1.80;;;;;;;;;;5001275;28;20010;-69
2023/09/21 11:10:56;;;;;;;7.17;1.63;;;;;;;;;;5009293;28;20500;-68
2023/09/21 11:13:21;;;;;;;8.38;1.58;;;;;;;;;;5005372;28;20753;-70
2023/09/21 11:15:47;;;;;;;7.60;1.67;;;;;;;;;;5009953;28;20021;-70
2023/09/21 11:18:12;;;;;;;9.18;1.50;;;;;;;;;;4988643;28;20240;-69
2023/09/21 11:20:39;;;;;;;8.00;1.90;;;;;;;;;;5010825;28;20092;-67
2023/09/21 11:23:05;;;;;;;3.88;1.40;;;;;;;;;;5009521;28;20017;-72
2023/09/21 11:25:30;;;;;;;6.75;1.33;;;;;;;;;;5005546;28;20025;-69
2023/09/21 11:27:58;;;;;;;5.13;1.38;;;;;;;;;;5008305;28;20381;-68
2023/09/21 11:30:25;;;;;;;;;;;;;;;;;;5006182;28;20013;-72
2023/09/21 11:32:51;;;;;;;6.97;1.63;;;;;;;;;;4993189;28;19920;-69
2023/09/21 11:35:17;;;;;;;3.22;1.33;;;;;;;;;;5010908;28;20051;-69
2023/09/21 11:37:43;;;;;;;10.38;1.65;;;;;;;;;;5006306;28;20027;-70
2023/09/21 11:40:12;;;;;;;10.65;2.15;;;;;;;;;;5011177;28;20010;-70
2023/09/21 11:42:44;;;;;;;5.90;1.42;;;;;;;;;;5004978;28;20497;-67
2023/09/21 11:45:13;;;;;;;4.97;1.60;;;;;;;;;;5010484;28;20041;-68
2023/09/21 11:47:38;;;;;;;6.68;1.70;;;;;;;;;;5010806;28;20064;-70
2023/09/21 11:50:04;;;;;;;5.50;1.50;;;;;;;;;;4988067;28;20487;-71
2023/09/21 11:52:31;;;;;;;6.70;1.60;;;;;;;;;;5008149;28;20071;-70
2023/09/21 11:54:56;;;;;;;5.82;1.50;;;;;;;;;;5004366;28;20117;-70
2023/09/21 11:57:21;;;;;;;10.40;1.90;;;;;;;;;;5005766;28;20071;-69
2023/09/21 11:59:47;;;;;;;5.90;1.30;;;;;;;;;;5008038;28;20383;-69
2023/09/21 12:02:17;;;;;;;16.92;3.45;;;;;;;;;;5004929;28;20018;-69
2023/09/21 12:04:42;;;;;;;6.97;2.20;;;;;;;;;;5010390;28;20083;-69
2023/09/21 12:07:09;;;;;;;5.70;1.50;;;;;;;;;;5004085;28;20376;-64
2023/09/21 12:09:40;;;;;;;9.25;1.38;;;;;;;;;;4992592;28;20052;-70
2023/09/21 12:12:08;;;;;;;5.60;1.63;;;;;;;;;;4992996;28;20044;-70
2023/09/21 12:14:34;;;;;;;4.18;1.30;;;;;;;;;;5009784;28;20135;-69
2023/09/21 12:17:02;;;;;;;6.40;1.63;;;;;;;;;;5010494;28;20013;-70
2023/09/21 12:19:28;;;;;;;3.85;1.20;;;;;;;;;;5011075;28;20010;-67
2023/09/21 12:21:56;;;;;;;4.55;1.25;;;;;;;;;;5011248;28;20021;-69
2023/09/21 12:24:21;;;;;;;10.67;1.37;;;;;;;;;;5004046;28;20021;-67
2023/09/21 12:26:46;;;;;;;3.80;1.17;;;;;;;;;;5008887;28;20315;-68
2023/09/21 12:29:15;;;;;;;7.03;1.50;;;;;;;;;;5006648;28;20010;-69
2023/09/21 12:31:42;;;;;;;5.50;1.58;;;;;;;;;;5007926;28;20064;-69
2023/09/21 12:34:07;;;;;;;2.97;1.25;;;;;;;;;;5005403;28;20010;-71
2023/09/21 12:36:32;;;;;;;7.57;1.70;;;;;;;;;;5007667;28;20044;-69
2023/09/21 12:39:00;;;;;;;4.68;1.08;;;;;;;;;;5011856;28;20258;-71
2023/09/21 12:41:26;;;;;;;7.20;1.43;;;;;;;;;;5010586;28;20014;-70
2023/09/21 12:43:51;;;;;;;4.55;1.35;;;;;;;;;;5008704;28;20026;-65
2023/09/21 12:46:16;;;;;;;9.80;1.58;;;;;;;;;;5009578;28;20067;-69
2023/09/21 12:48:41;;;;;;;4.43;1.30;;;;;;;;;;5010130;28;20029;-69
2023/09/21 12:51:07;;;;;;;5.13;1.35;;;;;;;;;;5010745;28;20013;-69
2023/09/21 12:53:32;;;;;;;7.05;1.30;;;;;;;;;;5004690;28;20489;-69
2023/09/21 12:55:58;;;;;;;6.35;1.63;;;;;;;;;;5008931;28;20099;-67
2023/09/21 12:58:23;;;;;;;3.97;1.55;;;;;;;;;;4988062;28;20508;-69
2023/09/21 13:00:49;;;;;;;4.80;1.42;;;;;;;;;;5000864;28;20018;-68
2023/09/21 13:03:15;;;;;;;5.45;1.60;;;;;;;;;;5005967;28;20011;-69
2023/09/21 13:05:43;;;;;;;3.42;1.27;;;;;;;;;;5006291;28;20424;-66
2023/09/21 13:08:08;;;;;;;;;;;;;;;;;;5005626;28;20675;-68
2023/09/21 13:10:34;;;;;;;6.50;2.03;;;;;;;;;;5009408;28;20506;-69
2023/09/21 13:13:00;;;;;;;4.88;1.50;;;;;;;;;;5009780;28;20049;-71
2023/09/21 13:15:26;;;;;;;7.43;1.50;;;;;;;;;;5005864;28;20014;-68
2023/09/21 13:17:52;;;;;;;6.80;1.40;;;;;;;;;;5002770;28;20326;-67
2023/09/21 13:20:19;;;;;;;7.53;1.55;;;;;;;;;;5009221;28;20045;-70
2023/09/21 13:22:44;;;;;;;9.80;1.73;;;;;;;;;;5006166;28;20365;-68
2023/09/21 13:25:10;;;;;;;4.70;1.67;;;;;;;;;;5008994;28;20014;-69
2023/09/21 13:27:35;;;;;;;2.53;1.33;;;;;;;;;;5008870;28;20317;-69
2023/09/21 13:30:00;;;;;;;7.03;1.33;;;;;;;;;;5003272;28;20032;-67
2023/09/21 13:32:25;;;;;;;4.78;1.15;;;;;;;;;;5008717;28;20018;-69
2023/09/21 13:34:51;;;;;;;3.42;1.40;;;;;;;;;;5008899;28;20034;-70
2023/09/21 13:37:16;;;;;;;7.05;1.23;;;;;;;;;;5005002;28;20006;-70
2023/09/21 13:39:42;;;;;;;10.65;1.40;;;;;;;;;;5004237;28;20038;-72
2023/09/21 13:42:08;;;;;;;8.60;1.42;;;;;;;;;;5005769;28;20564;-67
2023/09/21 13:44:33;;;;;;;3.90;1.70;;;;;;;;;;5006552;28;20102;-71
2023/09/21 13:47:00;;;;;;;5.07;1.30;;;;;;;;;;5008691;28;20056;-68
2023/09/21 13:49:26;;;;;;;2.57;1.27;;;;;;;;;;5013137;28;20854;-71
2023/09/21 13:51:52;;;;;;;4.55;1.40;;;;;;;;;;5007301;28;20029;-70
2023/09/21 13:54:20;;;;;;;6.28;1.85;;;;;;;;;;5009100;28;20021;-69
2023/09/21 13:56:45;;;;;;;11.63;1.40;;;;;;;;;;5012462;28;20050;-69
2023/09/21 13:59:10;;;;;;;6.75;1.73;;;;;;;;;;5012545;28;20025;-68
2023/09/21 14:01:36;;;;;;;10.25;2.03;;;;;;;;;;4992310;28;20015;-70
2023/09/21 14:04:03;;;;;;;7.13;1.45;;;;;;;;;;5011978;28;20006;-70
2023/09/21 14:06:29;;;;;;;3.08;1.20;;;;;;;;;;5012560;28;20013;-69
2023/09/21 14:08:55;;;;;;;5.10;1.48;;;;;;;;;;4994882;28;20080;-70
2023/09/21 14:11:20;;;;;;;8.90;2.17;;;;;;;;;;5006998;28;20010;-66
2023/09/21 14:13:45;;;;;;;5.18;1.50;;;;;;;;;;5011367;28;20112;-67
2023/09/21 14:16:10;;;;;;;9.93;1.67;;;;;;;;;;5005804;28;20470;-69
2023/09/21 14:18:36;;;;;;;5.82;1.63;;;;;;;;;;5009584;28;20037;-68
2023/09/21 14:21:03;;;;;;;10.52;1.67;;;;;;;;;;5008795;28;20010;-70
2023/09/21 14:23:28;;;;;;;4.80;1.45;;;;;;;;;;5010396;28;20017;-71
2023/09/21 14:25:53;;;;;;;5.03;1.92;;;;;;;;;;5012686;28;20453;-69
2023/09/21 14:28:19;;;;;;;12.65;2.00;;;;;;;;;;5012020;28;20018;-68
2023/09/21 14:30:44;;;;;;;7.65;2.65;;;;;;;;;;5010411;28;20497;-67
2023/09/21 14:33:09;;;;;;;6.80;1.40;;;;;;;;;;5008075;28;20109;-68
2023/09/21 14:35:34;;;;;;;5.10;1.58;;;;;;;;;;5011643;28;20365;-67
2023/09/21 14:38:01;;;;;;;7.63;1.47;;;;;;;;;;5011716;28;20018;-70